Cosco Tengfei — HPMO — position and weather

sailwx.info

Track history (hours):
 
Tides and Currents Weather Stations Pressure Air Temp Water Temp Dewpoint Dewpoint Depression Visibility Wind Speed Wind Dir Waves Ship Positions

Cosco Tengfei

Last reported at 2014-Dec-22 07:32 UTC. Time now 2014-Dec-22 07:49 UTC.
Position N 44°19' E 008°30'.

Length 183 m; draft 8.5 m.

Type: Cargo ship. MMSI: 355518000.

Date/timePositionNaut miles runAvg speedWind from/ knotsBaromVisibWave heightAir tempDewpointWater temp
2014-Dec-22 07:32N 44°19' E 008°30'0 0.0
2014-Dec-22 06:32N 44°19' E 008°30'0 0.0
2014-Dec-22 05:32N 44°19' E 008°30'0 0.0
2014-Dec-22 04:32N 44°19' E 008°30'0 0.0
2014-Dec-22 03:32N 44°19' E 008°30'0 0.0
2014-Dec-22 02:32N 44°19' E 008°30'0 0.0
2014-Dec-22 01:29N 44°19' E 008°30'0 0.0
2014-Dec-22 00:32N 44°19' E 008°30'0 0.0
2014-Dec-21 23:32N 44°19' E 008°30'0 0.0
2014-Dec-21 22:32N 44°19' E 008°30'0 0.0
2014-Dec-21 21:32N 44°19' E 008°30'0 0.0
2014-Dec-21 20:32N 44°19' E 008°30'0 0.0
2014-Dec-21 19:32N 44°19' E 008°30'0 0.0
2014-Dec-21 18:32N 44°19' E 008°30'0 0.0
2014-Dec-21 17:32N 44°19' E 008°30'0 0.0
2014-Dec-21 16:32N 44°19' E 008°30'0 0.0
2014-Dec-21 15:32N 44°19' E 008°30'0 0.0
2014-Dec-21 14:32N 44°19' E 008°30'0 0.0
2014-Dec-21 13:32N 44°19' E 008°30'0 0.0
2014-Dec-21 12:32N 44°19' E 008°30'0 0.0
2014-Dec-21 11:32N 44°19' E 008°30'0 0.0
2014-Dec-21 10:32N 44°19' E 008°30'0 0.0
2014-Dec-21 09:32N 44°19' E 008°30'0 0.0
2014-Dec-21 08:31N 44°19' E 008°30'0 0.0
2014-Dec-21 07:32N 44°19' E 008°30'0 0.0
2014-Dec-21 06:31N 44°19' E 008°30'0 0.0
2014-Dec-21 05:26N 44°19' E 008°30'0 0.0
2014-Dec-21 04:26N 44°19' E 008°30'0 0.0
2014-Dec-21 03:32N 44°19' E 008°30'0 0.1
2014-Dec-21 02:33N 44°19' E 008°30'3 2.6
2014-Dec-21 01:33N 44°16' E 008°31'1514.6
2014-Dec-21 00:33N 44°03' E 008°24'30214.2
2014-Dec-20 03:15N 41°24' E 002°35'3 0.5
2014-Dec-19 21:33N 41°21' E 002°34'7 6.5
2014-Dec-19 20:33N 41°18' E 002°26'13 1.3
2014-Dec-19 10:29N 41°20' E 002°09'0 0.0
2014-Dec-19 09:23N 41°20' E 002°09'0 0.0
2014-Dec-19 08:05N 41°20' E 002°09'0 0.0
2014-Dec-19 06:11N 41°20' E 002°09'1 1.4
2014-Dec-19 05:22N 41°19' E 002°10'2 0.2
2014-Dec-18 22:15N 41°19' E 002°12'0 0.0
2014-Dec-18 20:32N 41°19' E 002°12'0 0.0
2014-Dec-18 18:07N 41°19' E 002°12'0 0.0
2014-Dec-18 16:07N 41°19' E 002°12'0 0.0
2014-Dec-18 15:07N 41°19' E 002°12'0 0.0
2014-Dec-18 10:32N 41°19' E 002°12'0 0.0
2014-Dec-18 09:25N 41°19' E 002°12'0 0.0
2014-Dec-18 05:31N 41°19' E 002°12'0 0.0
2014-Dec-18 03:25N 41°19' E 002°12'0 0.0
2014-Dec-17 19:31N 41°19' E 002°12'0 0.0
2014-Dec-16 08:07N 41°19' E 002°12'0 0.0
2014-Dec-15 11:07N 41°19' E 002°12'0 0.0
2014-Dec-15 02:19N 41°19' E 002°12'0 0.1
2014-Dec-15 01:25N 41°19' E 002°12'0 0.0
2014-Dec-15 00:31N 41°19' E 002°12'0 0.0
2014-Dec-14 23:31N 41°19' E 002°12'0 0.0
2014-Dec-14 16:13N 41°19' E 002°12'0 0.0
2014-Dec-14 15:19N 41°19' E 002°12'0 0.0
2014-Dec-14 09:19N 41°19' E 002°12'0 0.0
2014-Dec-14 01:31N 41°19' E 002°12'0 0.0
2014-Dec-13 23:25N 41°19' E 002°12'0 0.0
2014-Dec-13 22:25N 41°19' E 002°12'7 1.0
2014-Dec-13 15:29N 41°13' E 002°08'1010.1
2014-Dec-13 14:29N 41°06' E 001°57'1 0.9
2014-Dec-13 13:25N 41°06' E 001°56'1 0.9
2014-Dec-13 12:30N 41°05' E 001°56'1 0.5
2014-Dec-13 11:33N 41°05' E 001°56'6 5.7
2014-Dec-13 10:30N 41°11' E 001°56'8 3.4
2014-Dec-13 08:17N 41°08' E 002°06'1215.6
2014-Dec-13 07:29N 41°04' E 002°21'1516.1
2014-Dec-13 06:33N 40°59' E 002°40'1414.2
2014-Dec-13 05:33N 40°55' E 002°58'1413.4
2014-Dec-13 04:33N 40°49' E 003°14'1413.9
2014-Dec-13 03:33N 40°43' E 003°31'  
Track history (hours):
 
Tides and Currents Weather Stations Pressure Air Temp Water Temp Dewpoint Dewpoint Depression Visibility Wind Speed Wind Dir Waves Ship Positions

Cosco Tengfei

Last reported at 2014-Dec-22 07:32 UTC. Time now 2014-Dec-22 07:49 UTC.
Position N 44°19' E 008°30'.

Length 183 m; draft 8.5 m.

Type: Cargo ship. MMSI: 355518000.

Date/timePositionNaut miles runAvg speedWind from/ knotsBaromVisibWave heightAir tempDewpointWater temp
2014-Dec-22 07:32N 44°19' E 008°30'0 0.0
2014-Dec-22 06:32N 44°19' E 008°30'0 0.0
2014-Dec-22 05:32N 44°19' E 008°30'0 0.0
2014-Dec-22 04:32N 44°19' E 008°30'0 0.0
2014-Dec-22 03:32N 44°19' E 008°30'0 0.0
2014-Dec-22 02:32N 44°19' E 008°30'0 0.0
2014-Dec-22 01:29N 44°19' E 008°30'0 0.0
2014-Dec-22 00:32N 44°19' E 008°30'0 0.0
2014-Dec-21 23:32N 44°19' E 008°30'0 0.0
2014-Dec-21 22:32N 44°19' E 008°30'0 0.0
2014-Dec-21 21:32N 44°19' E 008°30'0 0.0
2014-Dec-21 20:32N 44°19' E 008°30'0 0.0
2014-Dec-21 19:32N 44°19' E 008°30'0 0.0
2014-Dec-21 18:32N 44°19' E 008°30'0 0.0
2014-Dec-21 17:32N 44°19' E 008°30'0 0.0
2014-Dec-21 16:32N 44°19' E 008°30'0 0.0
2014-Dec-21 15:32N 44°19' E 008°30'0 0.0
2014-Dec-21 14:32N 44°19' E 008°30'0 0.0
2014-Dec-21 13:32N 44°19' E 008°30'0 0.0
2014-Dec-21 12:32N 44°19' E 008°30'0 0.0
2014-Dec-21 11:32N 44°19' E 008°30'0 0.0
2014-Dec-21 10:32N 44°19' E 008°30'0 0.0
2014-Dec-21 09:32N 44°19' E 008°30'0 0.0
2014-Dec-21 08:31N 44°19' E 008°30'0 0.0
2014-Dec-21 07:32N 44°19' E 008°30'0 0.0
2014-Dec-21 06:31N 44°19' E 008°30'0 0.0
2014-Dec-21 05:26N 44°19' E 008°30'0 0.0
2014-Dec-21 04:26N 44°19' E 008°30'0 0.0
2014-Dec-21 03:32N 44°19' E 008°30'0 0.1
2014-Dec-21 02:33N 44°19' E 008°30'3 2.6
2014-Dec-21 01:33N 44°16' E 008°31'1514.6
2014-Dec-21 00:33N 44°03' E 008°24'30214.2
2014-Dec-20 03:15N 41°24' E 002°35'3 0.5
2014-Dec-19 21:33N 41°21' E 002°34'7 6.5
2014-Dec-19 20:33N 41°18' E 002°26'13 1.3
2014-Dec-19 10:29N 41°20' E 002°09'0 0.0
2014-Dec-19 09:23N 41°20' E 002°09'0 0.0
2014-Dec-19 08:05N 41°20' E 002°09'0 0.0
2014-Dec-19 06:11N 41°20' E 002°09'1 1.4
2014-Dec-19 05:22N 41°19' E 002°10'2 0.2
2014-Dec-18 22:15N 41°19' E 002°12'0 0.0
2014-Dec-18 20:32N 41°19' E 002°12'0 0.0
2014-Dec-18 18:07N 41°19' E 002°12'0 0.0
2014-Dec-18 16:07N 41°19' E 002°12'0 0.0
2014-Dec-18 15:07N 41°19' E 002°12'0 0.0
2014-Dec-18 10:32N 41°19' E 002°12'0 0.0
2014-Dec-18 09:25N 41°19' E 002°12'0 0.0
2014-Dec-18 05:31N 41°19' E 002°12'0 0.0
2014-Dec-18 03:25N 41°19' E 002°12'0 0.0
2014-Dec-17 19:31N 41°19' E 002°12'0 0.0
2014-Dec-16 08:07N 41°19' E 002°12'0 0.0
2014-Dec-15 11:07N 41°19' E 002°12'0 0.0
2014-Dec-15 02:19N 41°19' E 002°12'0 0.1
2014-Dec-15 01:25N 41°19' E 002°12'0 0.0
2014-Dec-15 00:31N 41°19' E 002°12'0 0.0
2014-Dec-14 23:31N 41°19' E 002°12'0 0.0
2014-Dec-14 16:13N 41°19' E 002°12'0 0.0
2014-Dec-14 15:19N 41°19' E 002°12'0 0.0
2014-Dec-14 09:19N 41°19' E 002°12'0 0.0
2014-Dec-14 01:31N 41°19' E 002°12'0 0.0
2014-Dec-13 23:25N 41°19' E 002°12'0 0.0
2014-Dec-13 22:25N 41°19' E 002°12'7 1.0
2014-Dec-13 15:29N 41°13' E 002°08'1010.1
2014-Dec-13 14:29N 41°06' E 001°57'1 0.9
2014-Dec-13 13:25N 41°06' E 001°56'1 0.9
2014-Dec-13 12:30N 41°05' E 001°56'1 0.5
2014-Dec-13 11:33N 41°05' E 001°56'6 5.7
2014-Dec-13 10:30N 41°11' E 001°56'8 3.4
2014-Dec-13 08:17N 41°08' E 002°06'1215.6
2014-Dec-13 07:29N 41°04' E 002°21'1516.1
2014-Dec-13 06:33N 40°59' E 002°40'1414.2
2014-Dec-13 05:33N 40°55' E 002°58'1413.4
2014-Dec-13 04:33N 40°49' E 003°14'1413.9
2014-Dec-13 03:33N 40°43' E 003°31'  

Dump ship's entire track history